createdAt,value
2022-08-05T00:01:21.005Z,22.90
2022-08-05T00:03:56.894Z,22.88
2022-08-05T00:06:32.366Z,22.85
2022-08-05T00:09:01.340Z,22.83
2022-08-05T00:11:30.311Z,22.78
2022-08-05T00:14:12.089Z,22.74
2022-08-05T00:16:52.971Z,22.69
2022-08-05T00:19:24.633Z,22.65
2022-08-05T00:21:53.932Z,22.61
2022-08-05T00:24:24.662Z,22.58
2022-08-05T00:27:00.524Z,22.56
2022-08-05T00:29:32.915Z,22.54
2022-08-05T00:32:12.243Z,22.53
2022-08-05T00:35:05.558Z,22.51
2022-08-05T00:37:35.533Z,22.48
2022-08-05T00:40:26.692Z,22.46
2022-08-05T00:43:02.524Z,22.45
2022-08-05T00:45:38.402Z,22.43
2022-08-05T00:48:09.455Z,22.43
2022-08-05T00:50:41.381Z,22.43
2022-08-05T00:54:01.110Z,22.40
2022-08-05T00:56:01.513Z,22.36
2022-08-05T00:58:29.733Z,22.33
2022-08-05T01:00:58.094Z,22.28
2022-08-05T01:03:30.962Z,22.23
2022-08-05T01:06:03.969Z,22.23
2022-08-05T01:08:42.737Z,22.21
2022-08-05T01:11:36.956Z,22.19
2022-08-05T01:14:28.135Z,22.05
2022-08-05T01:17:07.434Z,22.14
2022-08-05T01:20:03.763Z,22.11
2022-08-05T01:22:47.293Z,22.05
2022-08-05T01:25:40.668Z,22.02
2022-08-05T01:28:24.662Z,21.98
2022-08-05T01:31:03.043Z,21.93
2022-08-05T01:34:00.068Z,21.90
2022-08-05T01:36:34.360Z,21.80
2022-08-05T01:39:16.096Z,21.88
2022-08-05T01:42:07.046Z,21.88
2022-08-05T01:45:04.386Z,21.87
2022-08-05T01:47:38.724Z,21.86
2022-08-05T01:50:36.390Z,21.84
2022-08-05T01:53:57.214Z,21.83
2022-08-05T01:58:11.649Z,21.78
2022-08-05T01:59:18.116Z,21.75
2022-08-05T02:01:48.865Z,21.74
2022-08-05T02:04:43.145Z,21.73
2022-08-05T02:07:21.967Z,21.73
2022-08-05T02:10:17.247Z,21.70
2022-08-05T02:12:56.489Z,21.67
2022-08-05T02:15:33.458Z,21.52
2022-08-05T02:18:34.778Z,21.64
2022-08-05T02:21:42.915Z,21.61
2022-08-05T02:24:23.445Z,21.57
2022-08-05T02:27:10.358Z,21.56
2022-08-05T02:30:03.590Z,21.54
2022-08-05T02:32:34.434Z,21.50
2022-08-05T02:35:13.432Z,21.46
2022-08-05T02:37:47.597Z,21.44
2022-08-05T02:40:47.690Z,21.41
2022-08-05T02:43:18.355Z,21.41
2022-08-05T02:45:52.453Z,21.38
2022-08-05T02:48:29.277Z,21.36
2022-08-05T02:52:01.082Z,21.35
2022-08-05T02:54:42.148Z,21.33
2022-08-05T02:58:11.266Z,21.31
2022-08-05T03:00:35.550Z,21.28
2022-08-05T03:03:15.170Z,21.27
2022-08-05T03:06:55.098Z,21.26
2022-08-05T03:08:36.939Z,21.23
2022-08-05T03:11:56.273Z,21.15
2022-08-05T03:14:45.972Z,21.23
2022-08-05T03:17:14.582Z,21.22
2022-08-05T03:20:08.826Z,21.19
2022-08-05T03:22:38.556Z,21.16
2022-08-05T03:25:32.484Z,21.14
2022-08-05T03:28:04.673Z,21.13
2022-08-05T03:30:59.681Z,21.10
2022-08-05T03:33:32.211Z,21.08
2022-08-05T03:36:17.618Z,21.05
2022-08-05T03:39:27.320Z,21.04
2022-08-05T03:41:57.223Z,21.05
2022-08-05T03:44:50.449Z,21.07
2022-08-05T03:47:20.036Z,21.10
2022-08-05T03:50:13.884Z,21.10
2022-08-05T03:55:34.284Z,21.13
2022-08-05T03:56:11.034Z,21.14
2022-08-05T03:59:16.833Z,21.17
2022-08-05T04:01:52.078Z,21.21
2022-08-05T04:04:46.300Z,21.21
2022-08-05T04:07:15.740Z,21.25
2022-08-05T04:10:09.221Z,21.25
2022-08-05T04:13:04.111Z,21.26
2022-08-05T04:15:36.404Z,21.28
2022-08-05T04:18:07.978Z,21.31
2022-08-05T04:21:04.193Z,21.32
2022-08-05T04:24:06.503Z,21.36
2022-08-05T04:26:35.231Z,21.41
2022-08-05T04:29:09.105Z,21.46
2022-08-05T04:31:38.732Z,21.50
2022-08-05T04:34:31.728Z,21.54
2022-08-05T04:36:56.192Z,21.57
2022-08-05T04:39:24.530Z,21.60
2022-08-05T04:41:56.000Z,21.62
2022-08-05T04:44:49.891Z,21.66
2022-08-05T04:47:18.906Z,21.71
2022-08-05T04:50:13.837Z,21.73
2022-08-05T04:53:29.309Z,21.80
2022-08-05T04:56:33.934Z,21.85
2022-08-05T04:58:50.294Z,21.89
2022-08-05T05:02:08.159Z,21.94
2022-08-05T05:04:32.675Z,21.99
2022-08-05T05:07:00.833Z,22.02
2022-08-05T05:09:55.439Z,22.05
2022-08-05T05:12:27.278Z,22.12
2022-08-05T05:16:00.549Z,22.17
2022-08-05T05:18:09.347Z,22.23
2022-08-05T05:20:39.571Z,22.29
2022-08-05T05:24:01.778Z,22.34
2022-08-05T05:26:28.477Z,22.40
2022-08-05T05:29:02.291Z,22.46
2022-08-05T05:34:02.813Z,22.56
2022-08-05T05:36:31.823Z,22.61
2022-08-05T05:39:00.557Z,22.65
2022-08-05T05:41:40.169Z,22.71
2022-08-05T05:44:37.036Z,22.78
2022-08-05T05:47:04.036Z,22.87
2022-08-05T05:49:33.472Z,22.94
2022-08-05T05:52:05.923Z,23.03
2022-08-05T05:54:50.933Z,23.11
2022-08-05T05:57:20.468Z,23.19
2022-08-05T05:59:49.138Z,23.25
2022-08-05T06:02:32.684Z,23.32
2022-08-05T06:05:10.633Z,23.32
2022-08-05T06:07:57.812Z,23.49
2022-08-05T06:10:36.290Z,23.58
2022-08-05T06:13:05.487Z,23.68
2022-08-05T06:16:29.591Z,23.77
2022-08-05T06:18:31.085Z,23.85
2022-08-05T06:21:00.755Z,23.94
2022-08-05T06:23:32.005Z,24.01
2022-08-05T06:26:21.322Z,24.07
2022-08-05T06:28:52.169Z,24.16
2022-08-05T06:31:21.891Z,24.24
2022-08-05T06:34:07.002Z,24.31
2022-08-05T06:36:37.387Z,24.32
2022-08-05T06:39:27.790Z,24.53
2022-08-05T06:42:03.937Z,24.63
2022-08-05T06:44:32.782Z,24.72
2022-08-05T06:47:02.262Z,24.80
2022-08-05T06:50:01.853Z,24.88
2022-08-05T06:52:36.701Z,25.00
2022-08-05T06:55:07.440Z,25.11
2022-08-05T06:57:57.786Z,25.20
2022-08-05T07:00:25.635Z,25.26
2022-08-05T07:02:54.880Z,25.35
2022-08-05T07:05:37.030Z,25.45
2022-08-05T07:08:10.941Z,25.54
2022-08-05T07:10:53.083Z,25.60
2022-08-05T07:13:57.491Z,25.70
2022-08-05T07:17:59.045Z,25.82
2022-08-05T07:20:29.854Z,25.96
2022-08-05T07:22:28.591Z,26.06
2022-08-05T07:25:09.507Z,26.16
2022-08-05T07:27:58.558Z,26.27
2022-08-05T07:30:33.432Z,26.37
2022-08-05T07:33:16.621Z,26.49
2022-08-05T07:36:03.318Z,26.61
2022-08-05T07:38:43.280Z,26.70
2022-08-05T07:42:13.824Z,26.81
2022-08-05T07:44:26.094Z,26.85
2022-08-05T07:46:54.834Z,26.90
2022-08-05T07:49:23.134Z,27.01
2022-08-05T07:51:54.733Z,27.08
2022-08-05T07:54:30.671Z,27.09
2022-08-05T07:57:22.835Z,27.23
2022-08-05T07:59:52.057Z,27.31
2022-08-05T08:02:30.749Z,27.39
2022-08-05T08:05:00.549Z,27.49
2022-08-05T08:07:29.212Z,27.52
2022-08-05T08:10:08.285Z,27.53
2022-08-05T08:12:49.563Z,27.56
2022-08-05T08:15:28.054Z,27.61
2022-08-05T08:18:13.894Z,27.69
2022-08-05T08:21:02.179Z,27.77
2022-08-05T08:24:01.606Z,27.88
2022-08-05T08:26:29.444Z,28.00
2022-08-05T08:29:21.814Z,28.12
2022-08-05T08:31:48.521Z,28.24
2022-08-05T08:34:18.742Z,28.34
2022-08-05T08:37:04.880Z,28.49
2022-08-05T08:39:37.680Z,28.54
2022-08-05T08:42:34.063Z,28.71
2022-08-05T08:45:18.249Z,28.78
2022-08-05T08:48:11.789Z,29.00
2022-08-05T08:52:01.762Z,29.03
2022-08-05T08:54:21.136Z,29.03
2022-08-05T08:56:56.504Z,29.21
2022-08-05T08:59:33.429Z,29.39
2022-08-05T09:02:08.541Z,29.58
2022-08-05T09:04:58.604Z,29.74
2022-08-05T09:07:28.967Z,29.89
2022-08-05T09:09:57.616Z,30.07
2022-08-05T09:12:27.302Z,30.09
2022-08-05T09:15:04.844Z,30.36
2022-08-05T09:17:42.518Z,30.43
2022-08-05T09:20:36.149Z,30.55
2022-08-05T09:23:05.145Z,30.62
2022-08-05T09:26:01.997Z,30.71
2022-08-05T09:28:32.234Z,30.92
2022-08-05T09:31:22.907Z,31.24
2022-08-05T09:34:01.286Z,31.62
2022-08-05T09:36:55.885Z,31.98
2022-08-05T09:39:45.086Z,32.32
2022-08-05T09:42:23.232Z,32.52
2022-08-05T09:45:17.549Z,32.77
2022-08-05T09:47:55.264Z,33.08
2022-08-05T09:50:38.934Z,33.30
2022-08-05T09:53:22.696Z,33.55
2022-08-05T09:56:11.427Z,33.68
2022-08-05T09:58:42.070Z,33.95
2022-08-05T10:01:15.679Z,33.98
2022-08-05T10:04:03.650Z,34.13
2022-08-05T10:06:34.234Z,34.34
2022-08-05T10:09:27.523Z,34.44
2022-08-05T10:12:30.138Z,34.62
2022-08-05T10:15:20.609Z,34.69
2022-08-05T10:18:10.939Z,34.84
2022-08-05T10:20:51.582Z,35.00
2022-08-05T10:23:55.591Z,35.07
2022-08-05T10:26:15.335Z,35.15
2022-08-05T10:28:46.278Z,35.34
2022-08-05T10:32:52.564Z,35.63
2022-08-05T10:34:07.100Z,35.93
2022-08-05T10:36:38.046Z,36.04
2022-08-05T10:39:24.283Z,36.03
2022-08-05T10:42:33.911Z,36.07
2022-08-05T10:45:21.457Z,36.25
2022-08-05T10:48:29.731Z,36.38
2022-08-05T10:51:22.164Z,36.48
2022-08-05T10:53:51.037Z,36.67
2022-08-05T10:56:26.149Z,36.64
2022-08-05T11:00:03.581Z,36.54
2022-08-05T11:02:38.088Z,36.50
2022-08-05T11:05:31.556Z,36.36
2022-08-05T11:08:27.572Z,36.38
2022-08-05T11:11:44.356Z,36.34
2022-08-05T11:15:19.170Z,36.47
2022-08-05T11:17:57.290Z,36.66
2022-08-05T11:20:44.613Z,36.83
2022-08-05T11:24:05.570Z,36.83
2022-08-05T11:26:33.435Z,36.87
2022-08-05T11:29:36.292Z,36.86
2022-08-05T11:32:31.676Z,36.90
2022-08-05T11:36:07.705Z,36.91
2022-08-05T11:38:45.803Z,36.88
2022-08-05T11:41:56.478Z,36.87
2022-08-05T11:44:21.626Z,37.19
2022-08-05T11:47:11.098Z,37.42
2022-08-05T11:50:08.202Z,37.27
2022-08-05T11:52:36.660Z,37.30
2022-08-05T11:55:31.938Z,37.65
2022-08-05T11:58:10.480Z,38.10
2022-08-05T12:00:44.134Z,38.29
2022-08-05T12:03:29.194Z,38.46
2022-08-05T12:06:06.261Z,38.59
2022-08-05T12:08:51.033Z,38.66
2022-08-05T12:11:39.945Z,38.38
2022-08-05T12:14:11.187Z,38.14
2022-08-05T12:16:45.277Z,38.10
2022-08-05T12:20:16.964Z,38.14
2022-08-05T12:22:09.407Z,38.19
2022-08-05T12:24:50.500Z,37.96
2022-08-05T12:27:32.864Z,37.90
2022-08-05T12:30:15.441Z,38.05
2022-08-05T12:32:53.779Z,38.16
2022-08-05T12:35:37.186Z,38.21
2022-08-05T12:38:10.192Z,38.16
2022-08-05T12:41:03.898Z,38.26
2022-08-05T12:43:33.751Z,38.35
2022-08-05T12:46:07.486Z,38.49
2022-08-05T12:48:40.922Z,38.62
2022-08-05T12:52:12.510Z,38.70
2022-08-05T12:54:59.427Z,38.80
2022-08-05T12:58:48.828Z,38.80
2022-08-05T13:02:05.927Z,38.74
2022-08-05T13:03:16.162Z,38.36
2022-08-05T13:05:48.062Z,38.02
2022-08-05T13:08:19.197Z,37.84
2022-08-05T13:10:50.921Z,37.96
2022-08-05T13:14:05.102Z,38.06
2022-08-05T13:16:17.125Z,37.75
2022-08-05T13:18:55.154Z,37.79
2022-08-05T13:21:27.862Z,37.75
2022-08-05T13:24:09.398Z,37.65
2022-08-05T13:26:41.746Z,37.53
2022-08-05T13:29:37.657Z,37.45
2022-08-05T13:32:06.469Z,37.63
2022-08-05T13:34:59.942Z,37.42
2022-08-05T13:37:34.389Z,37.32
2022-08-05T13:40:14.199Z,36.73
2022-08-05T13:42:45.391Z,36.20
2022-08-05T13:45:43.230Z,35.73
2022-08-05T13:48:57.472Z,35.43
2022-08-05T13:51:36.435Z,35.46
2022-08-05T13:54:30.131Z,35.24
2022-08-05T13:56:59.512Z,35.12
2022-08-05T13:59:30.819Z,35.29
2022-08-05T14:02:00.715Z,35.32
2022-08-05T14:05:15.421Z,35.33
2022-08-05T14:08:05.726Z,35.60
2022-08-05T14:11:19.761Z,35.77
2022-08-05T14:14:14.015Z,35.88
2022-08-05T14:16:51.551Z,35.83
2022-08-05T14:19:55.340Z,35.92
2022-08-05T14:22:25.264Z,35.88
2022-08-05T14:25:28.211Z,35.56
2022-08-05T14:27:58.758Z,35.29
2022-08-05T14:30:52.260Z,35.02
2022-08-05T14:33:24.735Z,34.95
2022-08-05T14:35:54.566Z,34.96
2022-08-05T14:38:32.063Z,34.89
2022-08-05T14:41:28.139Z,35.03
2022-08-05T14:44:14.443Z,35.50
2022-08-05T14:46:49.611Z,35.92
2022-08-05T14:49:20.761Z,36.18
2022-08-05T14:51:49.222Z,36.51
2022-08-05T14:54:52.755Z,36.73
2022-08-05T14:57:22.689Z,36.93
2022-08-05T15:00:08.427Z,36.59
2022-08-05T15:02:38.702Z,36.48
2022-08-05T15:05:13.304Z,36.77
2022-08-05T15:08:05.461Z,37.16
2022-08-05T15:10:30.860Z,37.18
2022-08-05T15:13:04.161Z,37.16
2022-08-05T15:15:55.271Z,36.59
2022-08-05T15:18:21.707Z,36.11
2022-08-05T15:20:50.034Z,35.99
2022-08-05T15:23:19.492Z,35.88
2022-08-05T15:25:52.972Z,35.80
2022-08-05T15:28:27.620Z,35.55
2022-08-05T15:30:56.972Z,35.40
2022-08-05T15:34:05.568Z,35.35
2022-08-05T15:36:17.537Z,35.33
2022-08-05T15:41:00.213Z,35.18
2022-08-05T15:41:58.531Z,35.02
2022-08-05T15:44:30.297Z,34.96
2022-08-05T15:47:01.885Z,34.68
2022-08-05T15:49:55.235Z,34.35
2022-08-05T15:52:51.575Z,33.90
2022-08-05T15:55:15.443Z,33.59
2022-08-05T15:57:45.062Z,33.24
2022-08-05T16:00:16.856Z,33.00
2022-08-05T16:02:54.202Z,32.81
2022-08-05T16:05:23.482Z,32.72
2022-08-05T16:07:57.053Z,32.67
2022-08-05T16:10:26.833Z,32.59
2022-08-05T16:12:56.032Z,32.58
2022-08-05T16:15:24.693Z,32.56
2022-08-05T16:18:00.773Z,32.48
2022-08-05T16:20:32.831Z,32.48
2022-08-05T16:23:01.127Z,32.71
2022-08-05T16:25:33.953Z,32.83
2022-08-05T16:28:09.674Z,32.72
2022-08-05T16:30:38.829Z,32.59
2022-08-05T16:33:07.152Z,32.45
2022-08-05T16:35:42.271Z,32.33
2022-08-05T16:38:24.633Z,32.26
2022-08-05T16:41:01.454Z,32.21
2022-08-05T16:43:35.286Z,32.10
2022-08-05T16:46:24.683Z,31.99
2022-08-05T16:48:53.135Z,31.82
2022-08-05T16:51:24.633Z,31.70
2022-08-05T16:54:03.089Z,31.58
2022-08-05T16:56:37.072Z,31.48
2022-08-05T16:59:10.585Z,31.41
2022-08-05T17:01:54.348Z,31.35
2022-08-05T17:04:26.968Z,31.32
2022-08-05T17:07:00.354Z,31.29
2022-08-05T17:09:29.765Z,31.22
2022-08-05T17:11:59.319Z,31.11
2022-08-05T17:14:37.407Z,31.00
2022-08-05T17:17:14.643Z,30.90
2022-08-05T17:19:46.348Z,30.80
2022-08-05T17:22:18.036Z,30.69
2022-08-05T17:24:57.449Z,30.60
2022-08-05T17:27:33.514Z,30.52
2022-08-05T17:30:11.778Z,30.44
2022-08-05T17:32:47.268Z,30.36
2022-08-05T17:35:20.919Z,30.27
2022-08-05T17:37:49.398Z,30.21
2022-08-05T17:40:22.325Z,30.14
2022-08-05T17:42:52.953Z,30.03
2022-08-05T17:45:29.492Z,29.96
2022-08-05T17:48:08.146Z,29.87
2022-08-05T17:50:36.546Z,29.81
2022-08-05T17:53:05.515Z,29.74
2022-08-05T17:55:38.001Z,29.65
2022-08-05T17:58:12.564Z,29.57
2022-08-05T18:00:47.797Z,29.51
2022-08-05T18:03:56.033Z,29.43
2022-08-05T18:06:14.896Z,29.35
2022-08-05T18:08:52.037Z,29.28
2022-08-05T18:11:24.793Z,29.21
2022-08-05T18:14:04.226Z,29.16
2022-08-05T18:16:35.360Z,29.11
2022-08-05T18:19:15.471Z,29.07
2022-08-05T18:22:09.670Z,29.00
2022-08-05T18:24:32.245Z,28.95
2022-08-05T18:27:00.436Z,28.89
2022-08-05T18:29:40.908Z,28.81
2022-08-05T18:32:12.631Z,28.74
2022-08-05T18:34:42.985Z,28.68
2022-08-05T18:37:12.639Z,28.64
2022-08-05T18:41:51.013Z,28.58
2022-08-05T18:42:33.337Z,28.50
2022-08-05T18:45:01.582Z,28.49
2022-08-05T18:47:31.128Z,28.46
2022-08-05T18:50:21.340Z,28.42
2022-08-05T18:53:16.716Z,28.36
2022-08-05T18:55:47.686Z,28.31
2022-08-05T18:58:16.301Z,28.26
2022-08-05T19:00:44.960Z,28.21
2022-08-05T19:03:16.484Z,28.09
2022-08-05T19:06:19.153Z,28.12
2022-08-05T19:08:50.056Z,28.07
2022-08-05T19:11:19.505Z,28.01
2022-08-05T19:14:00.626Z,27.73
2022-08-05T19:16:34.343Z,27.42
2022-08-05T19:19:15.005Z,27.08
2022-08-05T19:21:51.449Z,26.74
2022-08-05T19:24:34.402Z,26.51
2022-08-05T19:27:05.739Z,26.28
2022-08-05T19:29:35.943Z,26.07
2022-08-05T19:32:11.246Z,25.85
2022-08-05T19:34:41.859Z,25.67
2022-08-05T19:37:10.705Z,25.50
2022-08-05T19:39:45.714Z,25.31
2022-08-05T19:42:35.573Z,25.15
2022-08-05T19:45:05.650Z,25.05
2022-08-05T19:47:38.049Z,24.94
2022-08-05T19:50:07.685Z,24.70
2022-08-05T19:52:39.040Z,24.76
2022-08-05T19:56:14.992Z,24.69
2022-08-05T19:58:19.408Z,24.61
2022-08-05T20:00:44.863Z,24.51
2022-08-05T20:03:13.337Z,24.33
2022-08-05T20:05:50.072Z,24.31
2022-08-05T20:08:20.470Z,24.24
2022-08-05T20:10:53.375Z,24.17
2022-08-05T20:13:30.180Z,24.11
2022-08-05T20:16:10.535Z,24.05
2022-08-05T20:18:39.227Z,24.01
2022-08-05T20:21:08.710Z,23.95
2022-08-05T20:23:51.678Z,23.84
2022-08-05T20:26:25.392Z,23.59
2022-08-05T20:28:56.259Z,23.59
2022-08-05T20:31:37.632Z,23.51
2022-08-05T20:34:41.419Z,23.38
2022-08-05T20:37:18.087Z,23.16
2022-08-05T20:39:58.266Z,22.97
2022-08-05T20:42:26.899Z,22.77
2022-08-05T20:44:56.493Z,22.71
2022-08-05T20:47:32.286Z,22.58
2022-08-05T20:50:02.029Z,22.43
2022-08-05T20:52:31.008Z,22.43
2022-08-05T20:56:07.854Z,22.38
2022-08-05T20:57:49.027Z,22.20
2022-08-05T21:00:41.665Z,22.28
2022-08-05T21:03:07.934Z,22.18
2022-08-05T21:05:54.127Z,22.11
2022-08-05T21:08:41.296Z,22.02
2022-08-05T21:12:07.086Z,22.06
2022-08-05T21:14:05.685Z,22.02
2022-08-05T21:27:25.147Z,21.86
2022-08-05T21:29:56.545Z,21.71
2022-08-05T21:32:27.360Z,21.59
2022-08-05T21:35:08.696Z,21.49
2022-08-05T21:37:52.658Z,21.35
2022-08-05T21:40:25.137Z,21.24
2022-08-05T21:42:54.560Z,21.06
2022-08-05T21:45:56.198Z,21.14
2022-08-05T21:48:15.552Z,21.07
2022-08-05T21:50:53.059Z,21.00
2022-08-05T21:53:27.679Z,20.67
2022-08-05T21:56:09.546Z,20.94
2022-08-05T21:58:56.948Z,20.91
2022-08-05T22:01:26.764Z,20.88
2022-08-05T22:03:55.230Z,20.86
2022-08-05T22:06:35.467Z,20.78
2022-08-05T22:09:14.706Z,20.70
2022-08-05T22:12:10.552Z,20.67
2022-08-05T22:14:41.244Z,20.67
2022-08-05T22:17:11.345Z,20.60
2022-08-05T22:19:57.487Z,20.67
2022-08-05T22:23:17.034Z,20.66
2022-08-05T22:26:10.353Z,20.66
2022-08-05T22:28:39.730Z,20.66
2022-08-05T22:31:08.026Z,20.66
2022-08-05T22:33:58.605Z,20.67
2022-08-05T22:36:53.206Z,20.70
2022-08-05T22:39:21.828Z,20.66
2022-08-05T22:42:11.717Z,20.69
2022-08-05T22:44:38.866Z,20.62
2022-08-05T22:47:07.186Z,20.61
2022-08-05T22:50:20.672Z,20.60
2022-08-05T22:52:32.377Z,20.56
2022-08-05T22:55:04.187Z,20.44
2022-08-05T22:57:34.060Z,20.51
2022-08-05T23:00:09.919Z,20.52
2022-08-05T23:02:46.481Z,20.52
2022-08-05T23:05:16.649Z,20.56
2022-08-05T23:07:48.574Z,20.56
2022-08-05T23:10:20.899Z,20.54
2022-08-05T23:12:55.245Z,20.53
2022-08-05T23:15:29.797Z,20.54
2022-08-05T23:18:11.314Z,20.44
2022-08-05T23:20:40.251Z,20.50
2022-08-05T23:23:11.460Z,20.50
2022-08-05T23:25:52.196Z,20.49
2022-08-05T23:28:28.599Z,20.48
2022-08-05T23:31:16.683Z,20.43
2022-08-05T23:34:03.712Z,20.38
2022-08-05T23:37:00.083Z,20.33
2022-08-05T23:39:44.399Z,20.28
2022-08-05T23:42:47.445Z,20.23
2022-08-05T23:45:23.768Z,20.18
2022-08-05T23:48:17.205Z,20.14
2022-08-05T23:50:47.895Z,20.15
2022-08-05T23:53:22.246Z,20.13
2022-08-05T23:55:51.397Z,20.11
2022-08-05T23:58:31.657Z,20.12
